createdAt,value
2016-11-19T00:00:06.315Z,0
2016-11-19T00:01:05.964Z,0
2016-11-19T00:02:06.234Z,0
2016-11-19T00:03:06.202Z,0
2016-11-19T00:04:05.849Z,0
2016-11-19T00:05:05.806Z,0
2016-11-19T00:06:05.766Z,0
2016-11-19T00:07:05.728Z,0
2016-11-19T00:08:05.687Z,0
2016-11-19T00:09:05.953Z,0
2016-11-19T00:10:05.613Z,0
2016-11-19T00:11:05.882Z,0
2016-11-19T00:12:05.838Z,0
2016-11-19T00:13:05.496Z,0
2016-11-19T00:14:05.455Z,0
2016-11-19T00:15:05.716Z,0
2016-11-19T00:16:05.376Z,0
2016-11-19T00:17:05.649Z,0
2016-11-19T00:18:05.607Z,0
2016-11-19T00:19:05.565Z,0
2016-11-19T00:20:05.521Z,0
2016-11-19T00:21:05.484Z,0
2016-11-19T00:22:05.443Z,0
2016-11-19T00:23:05.399Z,0
2016-11-19T00:24:04.753Z,0
2016-11-19T00:25:05.020Z,0
2016-11-19T00:26:05.285Z,0
2016-11-19T00:27:04.937Z,0
2016-11-19T00:28:04.635Z,0
2016-11-19T00:29:04.569Z,0
2016-11-19T00:30:05.126Z,0
2016-11-19T00:31:04.782Z,0
2016-11-19T00:32:05.049Z,0
2016-11-19T00:33:04.710Z,0
2016-11-19T00:34:04.966Z,0
2016-11-19T00:35:04.941Z,0
2016-11-19T00:36:04.590Z,0
2016-11-19T00:37:04.855Z,0
2016-11-19T00:38:04.813Z,0
2016-11-19T00:39:04.473Z,0
2016-11-19T00:40:04.140Z,0
2016-11-19T00:41:04.730Z,0
2016-11-19T00:42:04.655Z,0
2016-11-19T00:43:04.029Z,0
2016-11-19T00:44:04.285Z,0
2016-11-19T00:45:04.543Z,0
2016-11-19T00:46:04.520Z,0
2016-11-19T00:47:04.155Z,0
2016-11-19T00:48:04.126Z,0
2016-11-19T00:49:04.385Z,0
2016-11-19T00:50:04.042Z,0
2016-11-19T00:51:04.004Z,0
2016-11-19T00:52:04.278Z,0
2016-11-19T00:53:04.234Z,0
2016-11-19T00:54:04.183Z,0
2016-11-19T00:55:03.848Z,0
2016-11-19T00:56:03.804Z,0
2016-11-19T00:57:04.098Z,0
2016-11-19T00:58:04.036Z,0
2016-11-19T00:59:03.692Z,0
2016-11-19T01:00:03.958Z,0
2016-11-19T01:01:03.615Z,0
2016-11-19T01:02:03.272Z,0
2016-11-19T01:03:03.534Z,0
2016-11-19T01:04:03.490Z,0
2016-11-19T01:05:03.453Z,0
2016-11-19T01:06:03.743Z,0
2016-11-19T01:07:03.068Z,0
2016-11-19T01:08:03.640Z,0
2016-11-19T01:09:03.601Z,0
2016-11-19T01:10:03.564Z,0
2016-11-19T01:11:03.515Z,0
2016-11-19T01:12:03.480Z,0
2016-11-19T01:13:03.140Z,0
2016-11-19T01:14:03.405Z,0
2016-11-19T01:15:03.366Z,0
2016-11-19T01:16:03.020Z,0
2016-11-19T01:17:03.285Z,0
2016-11-19T01:18:02.941Z,0
2016-11-19T01:19:02.906Z,0
2016-11-19T01:20:02.861Z,0
2016-11-19T01:21:02.822Z,0
2016-11-19T01:22:02.925Z,0
2016-11-19T01:23:02.440Z,0
2016-11-19T01:24:03.013Z,0
2016-11-19T01:25:02.971Z,0
2016-11-19T01:26:02.624Z,0
2016-11-19T01:27:02.583Z,0
2016-11-19T01:28:02.546Z,0
2016-11-19T01:29:02.509Z,0
2016-11-19T01:30:02.785Z,0
2016-11-19T01:31:02.181Z,0
2016-11-19T01:32:02.395Z,0
2016-11-19T01:33:02.684Z,0
2016-11-19T01:34:02.310Z,0
2016-11-19T01:35:01.971Z,0
2016-11-19T01:36:02.242Z,0
2016-11-19T01:37:02.195Z,0
2016-11-19T01:38:01.851Z,0
2016-11-19T01:39:02.420Z,0
2016-11-19T01:40:01.472Z,0
2016-11-19T01:41:02.034Z,0
2016-11-19T01:42:01.693Z,0
2016-11-19T01:43:02.263Z,0
2016-11-19T01:44:01.924Z,0
2016-11-19T01:45:02.185Z,0
2016-11-19T01:46:01.853Z,0
2016-11-19T01:47:01.491Z,0
2016-11-19T01:48:02.062Z,0
2016-11-19T01:49:02.027Z,0
2016-11-19T01:50:01.977Z,0
2016-11-19T01:51:01.947Z,0
2016-11-19T01:52:01.603Z,0
2016-11-19T01:53:01.558Z,0
2016-11-19T01:54:01.827Z,0
2016-11-19T01:55:01.810Z,0
2016-11-19T01:56:01.747Z,0
2016-11-19T01:57:01.402Z,0
2016-11-19T01:58:01.664Z,0
2016-11-19T01:59:01.638Z,0
2016-11-19T02:00:01.286Z,0
2016-11-19T02:01:01.250Z,0
2016-11-19T02:02:01.502Z,0
2016-11-19T02:03:01.174Z,0
2016-11-19T02:04:01.426Z,0
2016-11-19T02:05:01.391Z,0
2016-11-19T02:06:01.356Z,0
2016-11-19T02:07:01.307Z,0
2016-11-19T02:08:00.965Z,0
2016-11-19T02:09:00.957Z,0
2016-11-19T02:10:01.189Z,0
2016-11-19T02:11:01.148Z,0
2016-11-19T02:12:01.106Z,0
2016-11-19T02:13:00.765Z,0
2016-11-19T02:14:01.031Z,0
2016-11-19T02:15:00.993Z,0
2016-11-19T02:16:00.946Z,0
2016-11-19T02:17:00.909Z,0
2016-11-19T02:18:00.890Z,0
2016-11-19T02:19:00.531Z,0
2016-11-19T02:20:00.486Z,0
2016-11-19T02:21:00.757Z,0
2016-11-19T02:22:00.450Z,0
2016-11-19T02:23:00.375Z,0
2016-11-19T02:24:00.336Z,0
2016-11-19T02:25:00.300Z,0
2016-11-19T02:26:00.548Z,0
2016-11-19T02:26:59.911Z,0
2016-11-19T02:28:00.490Z,0
2016-11-19T02:29:00.440Z,0
2016-11-19T02:30:00.392Z,0
2016-11-19T02:31:00.047Z,0
2016-11-19T02:32:00.012Z,0
2016-11-19T02:32:59.968Z,0
2016-11-19T02:33:59.926Z,0
2016-11-19T02:34:59.889Z,0
2016-11-19T02:36:00.153Z,0
2016-11-19T02:37:00.113Z,0
2016-11-19T02:38:00.080Z,0
2016-11-19T02:38:59.730Z,0
2016-11-19T02:40:00.024Z,0
2016-11-19T02:40:59.654Z,0
2016-11-19T02:41:59.908Z,0
2016-11-19T02:42:59.571Z,0
2016-11-19T02:43:59.841Z,0
2016-11-19T02:44:59.807Z,0
2016-11-19T02:45:59.757Z,0
2016-11-19T02:46:59.409Z,0
2016-11-19T02:47:59.667Z,0
2016-11-19T02:48:59.637Z,0
2016-11-19T02:49:59.294Z,0
2016-11-19T02:50:59.563Z,0
2016-11-19T02:51:59.522Z,0
2016-11-19T02:52:59.169Z,0
2016-11-19T02:53:59.439Z,0
2016-11-19T02:54:59.389Z,0
2016-11-19T02:55:59.060Z,0
2016-11-19T02:56:59.311Z,0
2016-11-19T02:57:59.278Z,0
2016-11-19T02:58:59.265Z,0
2016-11-19T02:59:59.196Z,0
2016-11-19T03:00:59.167Z,0
2016-11-19T03:01:59.116Z,0
2016-11-19T03:02:58.775Z,0
2016-11-19T03:03:58.739Z,0
2016-11-19T03:04:58.728Z,0
2016-11-19T03:05:58.964Z,0
2016-11-19T03:06:58.620Z,0
2016-11-19T03:07:58.572Z,0
2016-11-19T03:08:58.535Z,0
2016-11-19T03:09:58.805Z,0
2016-11-19T03:10:58.798Z,0
2016-11-19T03:11:58.418Z,0
2016-11-19T03:12:58.679Z,0
2016-11-19T03:13:58.641Z,0
2016-11-19T03:14:58.597Z,0
2016-11-19T03:15:58.252Z,0
2016-11-19T03:16:58.234Z,0
2016-11-19T03:17:58.501Z,0
2016-11-19T03:18:58.436Z,0
2016-11-19T03:19:58.098Z,0
2016-11-19T03:20:58.353Z,0
2016-11-19T03:21:58.324Z,0
2016-11-19T03:22:57.977Z,0
2016-11-19T03:23:58.237Z,0
2016-11-19T03:24:58.196Z,0
2016-11-19T03:25:58.153Z,0
2016-11-19T03:26:57.818Z,0
2016-11-19T03:27:58.078Z,0
2016-11-19T03:28:58.042Z,0
2016-11-19T03:29:57.697Z,0
2016-11-19T03:30:57.659Z,0
2016-11-19T03:31:57.620Z,0
2016-11-19T03:32:57.882Z,0
2016-11-19T03:33:57.540Z,0
2016-11-19T03:34:57.808Z,0
2016-11-19T03:35:57.760Z,0
2016-11-19T03:36:57.460Z,0
2016-11-19T03:37:57.681Z,0
2016-11-19T03:38:57.641Z,0
2016-11-19T03:39:57.599Z,0
2016-11-19T03:40:57.565Z,0
2016-11-19T03:41:57.230Z,0
2016-11-19T03:42:57.483Z,0
2016-11-19T03:43:57.444Z,0
2016-11-19T03:44:57.099Z,0
2016-11-19T03:45:57.363Z,0
2016-11-19T03:46:57.322Z,0
2016-11-19T03:47:57.307Z,0
2016-11-19T03:48:57.238Z,0
2016-11-19T03:49:56.897Z,0
2016-11-19T03:50:56.556Z,0
2016-11-19T03:51:57.121Z,0
2016-11-19T03:52:57.119Z,0
2016-11-19T03:53:57.046Z,0
2016-11-19T03:54:56.698Z,0
2016-11-19T03:55:56.998Z,0
2016-11-19T03:56:56.616Z,0
2016-11-19T03:57:56.883Z,0
2016-11-19T03:58:56.235Z,0
2016-11-19T03:59:56.797Z,0
2016-11-19T04:00:56.166Z,0
2016-11-19T04:01:56.744Z,0
2016-11-19T04:02:56.689Z,0
2016-11-19T04:03:56.644Z,0
2016-11-19T04:04:56.610Z,0
2016-11-19T04:05:56.570Z,0
2016-11-19T04:06:55.949Z,0
2016-11-19T04:07:56.203Z,0
2016-11-19T04:08:56.133Z,0
2016-11-19T04:09:56.399Z,0
2016-11-19T04:10:56.372Z,0
2016-11-19T04:11:56.021Z,0
2016-11-19T04:12:56.279Z,0
2016-11-19T04:13:55.638Z,0
2016-11-19T04:14:56.200Z,0
2016-11-19T04:15:55.858Z,0
2016-11-19T04:16:56.115Z,0
2016-11-19T04:17:55.475Z,0
2016-11-19T04:18:56.036Z,0
2016-11-19T04:19:55.694Z,0
2016-11-19T04:20:55.658Z,0
2016-11-19T04:21:55.948Z,0
2016-11-19T04:22:55.578Z,0
2016-11-19T04:23:55.839Z,0
2016-11-19T04:24:55.794Z,0
2016-11-19T04:25:55.762Z,0
2016-11-19T04:26:55.414Z,0
2016-11-19T04:27:55.373Z,0
2016-11-19T04:28:55.333Z,0
2016-11-19T04:29:55.295Z,0
2016-11-19T04:30:55.259Z,0
2016-11-19T04:31:55.211Z,0
2016-11-19T04:32:55.485Z,0
2016-11-19T04:33:55.433Z,0
2016-11-19T04:34:55.090Z,0
2016-11-19T04:35:54.749Z,0
2016-11-19T04:36:55.308Z,0
2016-11-19T04:37:55.278Z,0
2016-11-19T04:38:55.233Z,0
2016-11-19T04:39:55.194Z,0
2016-11-19T04:40:54.855Z,0
2016-11-19T04:41:54.820Z,0
2016-11-19T04:42:54.785Z,0
2016-11-19T04:43:55.065Z,0
2016-11-19T04:44:54.695Z,0
2016-11-19T04:45:54.970Z,0
2016-11-19T04:46:54.908Z,0
2016-11-19T04:47:54.872Z,0
2016-11-19T04:48:54.846Z,0
2016-11-19T04:49:54.487Z,0
2016-11-19T04:50:54.452Z,0
2016-11-19T04:51:54.412Z,0
2016-11-19T04:52:54.373Z,0
2016-11-19T04:53:54.641Z,0
2016-11-19T04:54:54.304Z,0
2016-11-19T04:55:54.566Z,0
2016-11-19T04:56:54.209Z,0
2016-11-19T04:57:54.470Z,0
2016-11-19T04:58:54.429Z,0
2016-11-19T04:59:54.396Z,0
2016-11-19T05:00:54.044Z,0
2016-11-19T05:01:54.304Z,0
2016-11-19T05:02:53.964Z,0
2016-11-19T05:03:53.960Z,0
2016-11-19T05:04:53.891Z,0
2016-11-19T05:05:54.147Z,0
2016-11-19T05:06:53.805Z,0
2016-11-19T05:07:54.065Z,0
2016-11-19T05:08:54.027Z,0
2016-11-19T05:09:53.681Z,0
2016-11-19T05:10:53.641Z,0
2016-11-19T05:11:53.905Z,0
2016-11-19T05:12:53.258Z,0
2016-11-19T05:13:53.828Z,0
2016-11-19T05:14:53.483Z,0
2016-11-19T05:15:53.442Z,0
2016-11-19T05:16:53.400Z,0
2016-11-19T05:17:53.664Z,0
2016-11-19T05:18:53.622Z,0
2016-11-19T05:19:53.610Z,0
2016-11-19T05:20:53.545Z,0
2016-11-19T05:21:53.500Z,0
2016-11-19T05:22:53.459Z,0
2016-11-19T05:23:53.421Z,0
2016-11-19T05:24:53.381Z,0
2016-11-19T05:25:53.378Z,0
2016-11-19T05:26:53.001Z,0
2016-11-19T05:27:52.955Z,0
2016-11-19T05:28:53.223Z,0
2016-11-19T05:29:53.185Z,0
2016-11-19T05:30:53.143Z,0
2016-11-19T05:31:52.501Z,0
2016-11-19T05:32:53.062Z,0
2016-11-19T05:33:52.717Z,0
2016-11-19T05:34:52.370Z,0
2016-11-19T05:35:52.941Z,0
2016-11-19T05:36:52.594Z,0
2016-11-19T05:37:52.555Z,0
2016-11-19T05:38:52.517Z,0
2016-11-19T05:39:52.781Z,0
2016-11-19T05:40:51.829Z,0
2016-11-19T05:41:52.692Z,0
2016-11-19T05:42:52.053Z,0
2016-11-19T05:43:52.308Z,0
2016-11-19T05:44:52.280Z,0
2016-11-19T05:45:52.237Z,0
2016-11-19T05:46:52.190Z,0
2016-11-19T05:47:52.146Z,0
2016-11-19T05:48:52.111Z,0
2016-11-19T05:49:52.402Z,0
2016-11-19T05:50:52.038Z,0
2016-11-19T05:51:51.992Z,0
2016-11-19T05:52:52.253Z,0
2016-11-19T05:53:51.613Z,0
2016-11-19T05:54:51.869Z,0
2016-11-19T05:55:51.833Z,0
2016-11-19T05:56:52.093Z,0
2016-11-19T05:57:52.058Z,0
2016-11-19T05:58:52.011Z,0
2016-11-19T05:59:51.666Z,0
2016-11-19T06:00:51.932Z,0
2016-11-19T06:01:51.891Z,0
2016-11-19T06:02:51.547Z,0
2016-11-19T06:03:51.504Z,0
2016-11-19T06:04:51.767Z,0
2016-11-19T06:05:51.762Z,0
2016-11-19T06:06:51.689Z,0
2016-11-19T06:07:51.647Z,0
2016-11-19T06:08:51.304Z,0
2016-11-19T06:09:51.263Z,0
2016-11-19T06:10:51.550Z,0
2016-11-19T06:11:51.487Z,0
2016-11-19T06:12:51.458Z,0
2016-11-19T06:13:51.100Z,0
2016-11-19T06:14:51.367Z,0
2016-11-19T06:15:51.023Z,0
2016-11-19T06:16:51.288Z,0
2016-11-19T06:17:51.242Z,0
2016-11-19T06:18:50.897Z,0
2016-11-19T06:19:51.166Z,0
2016-11-19T06:20:51.124Z,0
2016-11-19T06:21:51.084Z,0
2016-11-19T06:22:51.044Z,0
2016-11-19T06:23:50.395Z,0
2016-11-19T06:24:50.661Z,0
2016-11-19T06:25:50.619Z,0
2016-11-19T06:26:50.883Z,0
2016-11-19T06:27:50.577Z,0
2016-11-19T06:28:49.897Z,0
2016-11-19T06:29:50.458Z,0
2016-11-19T06:30:50.723Z,0
2016-11-19T06:31:50.381Z,0
2016-11-19T06:32:50.638Z,0
2016-11-19T06:33:50.599Z,0
2016-11-19T06:34:50.261Z,0
2016-11-19T06:35:50.214Z,0
2016-11-19T06:36:50.187Z,0
2016-11-19T06:37:50.143Z,0
2016-11-19T06:38:50.401Z,0
2016-11-19T06:39:50.061Z,0
2016-11-19T06:40:50.319Z,0
2016-11-19T06:41:50.278Z,0
2016-11-19T06:42:50.237Z,0
2016-11-19T06:43:50.201Z,0
2016-11-19T06:44:49.555Z,0
2016-11-19T06:45:50.126Z,0
2016-11-19T06:46:50.076Z,0
2016-11-19T06:47:50.035Z,0
2016-11-19T06:48:49.701Z,0
2016-11-19T06:49:49.960Z,0
2016-11-19T06:50:49.918Z,0
2016-11-19T06:51:49.901Z,0
2016-11-19T06:52:49.536Z,0
2016-11-19T06:53:49.497Z,0
2016-11-19T06:54:49.454Z,0
2016-11-19T06:55:49.720Z,0
2016-11-19T06:56:49.376Z,0
2016-11-19T06:57:49.637Z,0
2016-11-19T06:58:49.601Z,0
2016-11-19T06:59:49.585Z,0
2016-11-19T07:00:49.509Z,0
2016-11-19T07:01:49.178Z,0
2016-11-19T07:02:49.138Z,0
2016-11-19T07:03:49.400Z,0
2016-11-19T07:04:49.355Z,0
2016-11-19T07:05:49.024Z,0
2016-11-19T07:06:50.703Z,5
2016-11-19T07:07:50.300Z,5
2016-11-19T07:08:49.979Z,5
2016-11-19T07:09:50.927Z,5
2016-11-19T07:10:50.663Z,5
2016-11-19T07:11:50.437Z,5
2016-11-19T07:12:50.423Z,5
2016-11-19T07:13:49.668Z,5
2016-11-19T07:14:50.419Z,5
2016-11-19T07:15:50.581Z,5
2016-11-19T07:16:49.235Z,5
2016-11-19T07:17:49.669Z,5
2016-11-19T07:18:51.048Z,5
2016-11-19T07:19:49.572Z,5
2016-11-19T07:20:51.188Z,5
2016-11-19T07:21:50.706Z,5
2016-11-19T07:22:50.304Z,5
2016-11-19T07:23:49.662Z,5
2016-11-19T07:24:50.112Z,5
2016-11-19T07:25:50.118Z,10
2016-11-19T07:26:50.272Z,5
2016-11-19T07:27:49.950Z,10
2016-11-19T07:28:50.164Z,10
2016-11-19T07:29:49.096Z,10
2016-11-19T07:30:48.007Z,10
2016-11-19T07:31:49.092Z,10
2016-11-19T07:32:49.781Z,10
2016-11-19T07:33:49.769Z,10
2016-11-19T07:34:49.370Z,10
2016-11-19T07:35:49.762Z,10
2016-11-19T07:36:50.428Z,10
2016-11-19T07:37:48.061Z,10
2016-11-19T07:38:47.989Z,10
2016-11-19T07:39:47.950Z,10
2016-11-19T07:40:47.607Z,10
2016-11-19T07:41:47.567Z,10
2016-11-19T07:42:47.831Z,10
2016-11-19T07:43:47.794Z,10
2016-11-19T07:44:47.748Z,10
2016-11-19T07:45:47.406Z,5
2016-11-19T07:46:49.128Z,10
2016-11-19T07:47:47.325Z,5
2016-11-19T07:48:49.311Z,10
2016-11-19T07:49:49.393Z,10
2016-11-19T07:50:49.735Z,5
2016-11-19T07:51:48.264Z,5
2016-11-19T07:52:49.032Z,5
2016-11-19T07:53:48.678Z,5
2016-11-19T07:54:49.736Z,5
2016-11-19T07:55:49.158Z,5
2016-11-19T07:56:48.716Z,5
2016-11-19T07:57:48.965Z,5
2016-11-19T07:58:48.223Z,5
2016-11-19T07:59:49.403Z,5
2016-11-19T08:00:48.822Z,5
2016-11-19T08:01:48.837Z,5
2016-11-19T08:02:48.232Z,5
2016-11-19T08:03:48.780Z,5
2016-11-19T08:04:46.988Z,10
2016-11-19T08:05:46.906Z,10
2016-11-19T08:06:46.866Z,10
2016-11-19T08:07:46.823Z,10
2016-11-19T08:08:46.788Z,10
2016-11-19T08:09:46.445Z,10
2016-11-19T08:10:46.710Z,15
2016-11-19T08:11:46.668Z,15
2016-11-19T08:12:46.326Z,15
2016-11-19T08:13:45.979Z,15
2016-11-19T08:14:46.271Z,20
2016-11-19T08:15:46.540Z,20
2016-11-19T08:16:46.463Z,20
2016-11-19T08:17:46.424Z,20
2016-11-19T08:18:46.390Z,20
2016-11-19T08:19:46.348Z,20
2016-11-19T08:20:46.005Z,20
2016-11-19T08:21:46.280Z,25
2016-11-19T08:22:46.227Z,25
2016-11-19T08:23:45.881Z,25
2016-11-19T08:24:46.149Z,25
2016-11-19T08:25:45.805Z,25
2016-11-19T08:26:46.068Z,25
2016-11-19T08:27:45.130Z,25
2016-11-19T08:28:46.026Z,30
2016-11-19T08:29:45.948Z,30
2016-11-19T08:30:45.905Z,35
2016-11-19T08:31:45.867Z,35
2016-11-19T08:32:45.829Z,30
2016-11-19T08:33:45.785Z,35
2016-11-19T08:34:45.747Z,35
2016-11-19T08:35:45.408Z,35
2016-11-19T08:36:45.364Z,30
2016-11-19T08:37:45.333Z,25
2016-11-19T08:38:46.533Z,25
2016-11-19T08:39:45.253Z,20
2016-11-19T08:40:47.008Z,20
2016-11-19T08:41:46.599Z,15
2016-11-19T08:42:45.522Z,20
2016-11-19T08:43:47.102Z,20
2016-11-19T08:44:46.251Z,40
2016-11-19T08:45:46.868Z,45
2016-11-19T08:46:45.524Z,45
2016-11-19T08:47:45.120Z,50
2016-11-19T08:48:46.000Z,50
2016-11-19T08:49:45.451Z,50
2016-11-19T08:50:45.019Z,50
2016-11-19T08:52:00.665Z,55
2016-11-19T08:52:45.135Z,55
2016-11-19T08:53:45.815Z,55
2016-11-19T08:54:46.065Z,55
2016-11-19T08:55:46.037Z,50
2016-11-19T08:56:44.784Z,50
2016-11-19T08:57:44.534Z,50
2016-11-19T08:58:44.221Z,55
2016-11-19T08:59:44.473Z,50
2016-11-19T09:00:44.753Z,50
2016-11-19T09:01:44.372Z,50
2016-11-19T09:02:44.339Z,55
2016-11-19T09:03:44.609Z,55
2016-11-19T09:04:44.254Z,55
2016-11-19T09:05:44.223Z,55
2016-11-19T09:06:44.175Z,55
2016-11-19T09:07:44.442Z,55
2016-11-19T09:08:44.400Z,55
2016-11-19T09:09:44.059Z,60
2016-11-19T09:10:44.321Z,65
2016-11-19T09:11:44.280Z,70
2016-11-19T09:12:44.243Z,75
2016-11-19T09:13:44.205Z,80
2016-11-19T09:14:43.863Z,75
2016-11-19T09:15:43.824Z,80
2016-11-19T09:16:44.088Z,75
2016-11-19T09:17:43.745Z,70
2016-11-19T09:18:43.714Z,65
2016-11-19T09:19:43.666Z,60
2016-11-19T09:20:43.933Z,60
2016-11-19T09:21:43.908Z,60
2016-11-19T09:22:43.851Z,65
2016-11-19T09:23:43.812Z,65
2016-11-19T09:24:43.773Z,65
2016-11-19T09:25:43.429Z,65
2016-11-19T09:26:43.396Z,70
2016-11-19T09:27:43.666Z,70
2016-11-19T09:28:43.312Z,70
2016-11-19T09:29:43.009Z,65
2016-11-19T09:30:42.939Z,60
2016-11-19T09:31:43.190Z,60
2016-11-19T09:32:43.453Z,60
2016-11-19T09:33:43.412Z,55
2016-11-19T09:34:43.377Z,60
2016-11-19T09:35:43.340Z,60
2016-11-19T09:36:43.332Z,55
2016-11-19T09:37:43.261Z,55
2016-11-19T09:38:42.925Z,55
2016-11-19T09:39:42.922Z,55
2016-11-19T09:40:43.138Z,50
2016-11-19T09:41:43.109Z,45
2016-11-19T09:42:43.057Z,40
2016-11-19T09:43:43.028Z,35
2016-11-19T09:44:43.017Z,35
2016-11-19T09:45:42.635Z,30
2016-11-19T09:46:42.916Z,35
2016-11-19T09:47:42.865Z,40
2016-11-19T09:48:42.868Z,40
2016-11-19T09:49:42.782Z,40
2016-11-19T09:50:42.752Z,35
2016-11-19T09:51:42.400Z,50
2016-11-19T09:52:42.673Z,55
2016-11-19T09:53:42.624Z,55
2016-11-19T09:54:42.286Z,50
2016-11-19T09:55:42.243Z,50
2016-11-19T09:56:42.509Z,50
2016-11-19T09:57:41.867Z,45
2016-11-19T09:58:41.831Z,45
2016-11-19T09:59:42.396Z,50
2016-11-19T10:00:42.352Z,55
2016-11-19T10:01:42.008Z,55
2016-11-19T10:02:42.271Z,60
2016-11-19T10:03:41.948Z,65
2016-11-19T10:04:41.919Z,70
2016-11-19T10:05:42.149Z,70
2016-11-19T10:06:41.807Z,70
2016-11-19T10:07:41.789Z,65
2016-11-19T10:08:42.033Z,65
2016-11-19T10:09:41.693Z,65
2016-11-19T10:10:41.656Z,65
2016-11-19T10:11:41.049Z,65
2016-11-19T10:12:41.273Z,65
2016-11-19T10:13:41.833Z,65
2016-11-19T10:14:41.193Z,65
2016-11-19T10:15:41.759Z,60
2016-11-19T10:16:41.429Z,65
2016-11-19T10:17:41.701Z,60
2016-11-19T10:18:41.641Z,50
2016-11-19T10:19:41.608Z,50
2016-11-19T10:20:41.567Z,45
2016-11-19T10:21:41.221Z,60
2016-11-19T10:22:41.687Z,60
2016-11-19T10:23:41.143Z,55
2016-11-19T10:24:40.494Z,45
2016-11-19T10:25:41.389Z,40
2016-11-19T10:26:40.719Z,55
2016-11-19T10:27:40.987Z,60
2016-11-19T10:28:41.241Z,50
2016-11-19T10:29:41.209Z,55
2016-11-19T10:30:41.183Z,50
2016-11-19T10:31:41.162Z,45
2016-11-19T10:32:40.785Z,35
2016-11-19T10:33:40.752Z,30
2016-11-19T10:34:40.704Z,30
2016-11-19T10:35:40.668Z,35
2016-11-19T10:36:40.631Z,35
2016-11-19T10:37:40.589Z,30
2016-11-19T10:38:40.853Z,35
2016-11-19T10:39:40.821Z,30
2016-11-19T10:40:40.771Z,30
2016-11-19T10:41:40.126Z,35
2016-11-19T10:42:40.386Z,40
2016-11-19T10:43:40.674Z,45
2016-11-19T10:44:40.610Z,40
2016-11-19T10:45:40.571Z,40
2016-11-19T10:46:40.545Z,35
2016-11-19T10:47:40.202Z,30
2016-11-19T10:48:40.461Z,45
2016-11-19T10:49:40.114Z,55
2016-11-19T10:50:40.075Z,45
2016-11-19T10:51:39.735Z,30
2016-11-19T10:52:39.696Z,25
2016-11-19T10:53:40.286Z,30
2016-11-19T10:54:40.215Z,40
2016-11-19T10:55:39.874Z,40
2016-11-19T10:56:40.143Z,40
2016-11-19T10:57:39.793Z,30
2016-11-19T10:58:39.754Z,30
2016-11-19T10:59:40.023Z,25
2016-11-19T11:00:39.677Z,20
2016-11-19T11:01:39.937Z,25
2016-11-19T11:02:39.293Z,30
2016-11-19T11:03:39.274Z,25
2016-11-19T11:04:39.828Z,40
2016-11-19T11:05:39.780Z,45
2016-11-19T11:06:39.741Z,55
2016-11-19T11:07:39.411Z,45
2016-11-19T11:08:39.060Z,45
2016-11-19T11:09:39.630Z,45
2016-11-19T11:10:39.582Z,45
2016-11-19T11:11:38.949Z,45
2016-11-19T11:12:39.509Z,40
2016-11-19T11:13:39.459Z,40
2016-11-19T11:14:39.123Z,40
2016-11-19T11:15:38.781Z,50
2016-11-19T11:16:39.350Z,55
2016-11-19T11:17:39.313Z,60
2016-11-19T11:18:39.266Z,65
2016-11-19T11:19:38.922Z,60
2016-11-19T11:20:38.582Z,65
2016-11-19T11:21:39.151Z,65
2016-11-19T11:22:39.181Z,55
2016-11-19T11:23:39.067Z,45
2016-11-19T11:24:39.033Z,40
2016-11-19T11:25:38.681Z,40
2016-11-19T11:26:38.648Z,45
2016-11-19T11:27:38.910Z,50
2016-11-19T11:28:38.562Z,55
2016-11-19T11:29:37.916Z,60
2016-11-19T11:30:38.785Z,65
2016-11-19T11:31:38.743Z,65
2016-11-19T11:32:38.710Z,65
2016-11-19T11:33:38.683Z,65
2016-11-19T11:34:38.629Z,65
2016-11-19T11:35:38.283Z,60
2016-11-19T11:36:38.253Z,60
2016-11-19T11:37:38.508Z,55
2016-11-19T11:38:37.866Z,60
2016-11-19T11:39:37.837Z,65
2016-11-19T11:40:38.386Z,80
2016-11-19T11:41:38.043Z,90
2016-11-19T11:42:38.338Z,105
2016-11-19T11:43:37.973Z,110
2016-11-19T11:44:38.233Z,105
2016-11-19T11:45:37.891Z,90
2016-11-19T11:46:37.845Z,65
2016-11-19T11:47:38.124Z,60
2016-11-19T11:48:38.077Z,55
2016-11-19T11:49:38.028Z,60
2016-11-19T11:50:37.993Z,55
2016-11-19T11:51:37.974Z,55
2016-11-19T11:52:37.918Z,55
2016-11-19T11:53:37.574Z,60
2016-11-19T11:54:37.536Z,70
2016-11-19T11:55:37.797Z,75
2016-11-19T11:56:37.796Z,75
2016-11-19T11:57:37.719Z,85
2016-11-19T11:58:37.382Z,85
2016-11-19T11:59:37.656Z,95
2016-11-19T12:00:37.609Z,95
2016-11-19T12:01:37.566Z,75
2016-11-19T12:02:37.217Z,45
2016-11-19T12:03:37.475Z,45
2016-11-19T12:04:37.142Z,55
2016-11-19T12:05:37.100Z,55
2016-11-19T12:06:37.366Z,65
2016-11-19T12:07:37.323Z,60
2016-11-19T12:08:37.281Z,50
2016-11-19T12:09:36.939Z,45
2016-11-19T12:10:36.932Z,40
2016-11-19T12:11:37.170Z,45
2016-11-19T12:12:36.822Z,45
2016-11-19T12:13:36.787Z,40
2016-11-19T12:14:36.748Z,40
2016-11-19T12:15:37.013Z,45
2016-11-19T12:16:36.965Z,50
2016-11-19T12:17:36.625Z,55
2016-11-19T12:18:36.889Z,60
2016-11-19T12:19:36.547Z,50
2016-11-19T12:20:36.808Z,50
2016-11-19T12:21:36.776Z,50
2016-11-19T12:22:36.744Z,45
2016-11-19T12:23:36.400Z,45
2016-11-19T12:24:36.351Z,65
2016-11-19T12:25:36.620Z,60
2016-11-19T12:26:36.285Z,60
2016-11-19T12:27:36.236Z,55
2016-11-19T12:28:36.493Z,60
2016-11-19T12:29:36.158Z,60
2016-11-19T12:30:36.420Z,55
2016-11-19T12:31:36.386Z,60
2016-11-19T12:32:36.039Z,55
2016-11-19T12:33:36.301Z,50
2016-11-19T12:34:35.960Z,50
2016-11-19T12:35:36.219Z,40
2016-11-19T12:36:36.183Z,35
2016-11-19T12:37:36.165Z,30
2016-11-19T12:38:36.101Z,25
2016-11-19T12:39:36.087Z,30
2016-11-19T12:40:36.025Z,30
2016-11-19T12:41:35.991Z,35
2016-11-19T12:42:35.342Z,40
2016-11-19T12:43:35.298Z,50
2016-11-19T12:44:35.866Z,55
2016-11-19T12:45:35.525Z,60
2016-11-19T12:46:35.803Z,55
2016-11-19T12:47:35.748Z,50
2016-11-19T12:48:35.411Z,35
2016-11-19T12:49:35.674Z,40
2016-11-19T12:50:35.030Z,45
2016-11-19T12:51:35.290Z,45
2016-11-19T12:52:35.550Z,45
2016-11-19T12:53:35.511Z,45
2016-11-19T12:54:35.467Z,50
2016-11-19T12:55:35.132Z,40
2016-11-19T12:56:34.793Z,35
2016-11-19T12:57:35.351Z,45
2016-11-19T12:58:35.316Z,40
2016-11-19T12:59:34.967Z,40
2016-11-19T13:00:35.252Z,35
2016-11-19T13:01:35.208Z,40
2016-11-19T13:02:34.856Z,40
2016-11-19T13:03:35.116Z,45
2016-11-19T13:04:34.779Z,50
2016-11-19T13:05:34.730Z,50
2016-11-19T13:06:35.027Z,55
2016-11-19T13:07:34.959Z,55
2016-11-19T13:08:34.925Z,40
2016-11-19T13:09:34.576Z,40
2016-11-19T13:10:34.845Z,30
2016-11-19T13:11:34.804Z,25
2016-11-19T13:12:34.760Z,30
2016-11-19T13:13:34.752Z,40
2016-11-19T13:14:34.383Z,50
2016-11-19T13:15:34.650Z,60
2016-11-19T13:16:34.601Z,65
2016-11-19T13:17:34.263Z,65
2016-11-19T13:18:34.607Z,60
2016-11-19T13:19:34.490Z,60
2016-11-19T13:20:34.445Z,65
2016-11-19T13:21:34.410Z,70
2016-11-19T13:22:34.377Z,70
2016-11-19T13:23:34.324Z,60
2016-11-19T13:24:34.296Z,50
2016-11-19T13:25:34.253Z,35
2016-11-19T13:26:33.907Z,30
2016-11-19T13:27:34.173Z,25
2016-11-19T13:28:33.528Z,25
2016-11-19T13:29:34.090Z,25
2016-11-19T13:30:33.166Z,25
2016-11-19T13:31:33.707Z,25
2016-11-19T13:32:34.002Z,25
2016-11-19T13:33:33.636Z,25
2016-11-19T13:34:33.901Z,20
2016-11-19T13:35:33.554Z,20
2016-11-19T13:36:33.515Z,15
2016-11-19T13:37:33.797Z,20
2016-11-19T13:38:33.160Z,15
2016-11-19T13:39:33.396Z,20
2016-11-19T13:40:33.355Z,20
2016-11-19T13:41:33.645Z,30
2016-11-19T13:42:33.579Z,30
2016-11-19T13:43:33.544Z,30
2016-11-19T13:44:33.205Z,25
2016-11-19T13:45:33.163Z,25
2016-11-19T13:46:33.119Z,30
2016-11-19T13:47:33.079Z,35
2016-11-19T13:48:33.357Z,30
2016-11-19T13:49:33.009Z,30
2016-11-19T13:50:33.291Z,25
2016-11-19T13:51:32.616Z,20
2016-11-19T13:52:33.188Z,20
2016-11-19T13:53:33.155Z,15
2016-11-19T13:54:33.114Z,15
2016-11-19T13:55:32.456Z,10
2016-11-19T13:56:32.737Z,10
2016-11-19T13:57:32.683Z,10
2016-11-19T13:58:32.944Z,10
2016-11-19T13:59:32.610Z,15
2016-11-19T14:00:32.568Z,20
2016-11-19T14:01:32.530Z,25
2016-11-19T14:02:32.810Z,25
2016-11-19T14:03:32.752Z,25
2016-11-19T14:04:32.715Z,20
2016-11-19T14:05:32.371Z,15
2016-11-19T14:06:32.335Z,15
2016-11-19T14:07:32.598Z,15
2016-11-19T14:08:32.264Z,15
2016-11-19T14:09:32.210Z,20
2016-11-19T14:10:32.476Z,30
2016-11-19T14:11:32.126Z,30
2016-11-19T14:12:32.090Z,25
2016-11-19T14:13:32.049Z,20
2016-11-19T14:14:32.308Z,15
2016-11-19T14:15:31.971Z,20
2016-11-19T14:16:31.931Z,20
2016-11-19T14:17:31.926Z,25
2016-11-19T14:18:32.167Z,25
2016-11-19T14:19:32.119Z,25
2016-11-19T14:20:32.074Z,25
2016-11-19T14:21:31.125Z,25
2016-11-19T14:22:31.996Z,25
2016-11-19T14:23:31.659Z,25
2016-11-19T14:24:31.913Z,30
2016-11-19T14:25:31.880Z,30
2016-11-19T14:26:31.843Z,30
2016-11-19T14:27:31.200Z,35
2016-11-19T14:28:31.460Z,35
2016-11-19T14:29:31.718Z,35
2016-11-19T14:30:31.379Z,35
2016-11-19T14:31:31.649Z,35